Time;durP1;ratioP1;P1;durP2;ratioP2;P2;SDS_P1;SDS_P2;PMS_P1;PMS_P2;Temp;Humidity;BMP_temperature;BMP_pressure;BME280_temperature;BME280_humidity;BME280_pressure;Samples;Min_cycle;Max_cycle;Signal;HPM_P1;HPM_P2
2022/10/11 00:02:12;;;;;;;9.90;2.90;;;7.10;99.90;;;;;;5070052;28;20032;-89
2022/10/11 00:04:38;;;;;;;9.75;2.60;;;7.10;99.90;;;;;;5070263;28;20493;-89
2022/10/11 00:07:03;;;;;;;10.43;2.20;;;7.10;99.90;;;;;;5070632;28;20438;-88
2022/10/11 00:09:29;;;;;;;7.53;2.10;;;7.10;99.90;;;;;;5070360;28;20371;-89
2022/10/11 00:11:55;;;;;;;10.32;2.33;;;7.10;99.90;;;;;;5070119;28;20036;-89
2022/10/11 00:14:21;;;;;;;15.13;2.25;;;7.10;99.90;;;;;;5070363;28;20064;-89
2022/10/11 00:16:46;;;;;;;7.82;2.05;;;7.10;99.90;;;;;;5070170;28;20037;-89
2022/10/11 00:19:12;;;;;;;7.65;1.80;;;7.00;99.90;;;;;;5070275;28;20086;-89
2022/10/11 00:21:38;;;;;;;10.48;1.90;;;7.00;99.90;;;;;;5070189;28;20036;-89
2022/10/11 00:24:04;;;;;;;15.23;2.20;;;7.00;99.90;;;;;;5070177;28;20047;-89
2022/10/11 00:26:30;;;;;;;8.93;1.98;;;7.00;99.90;;;;;;5070446;28;20040;-89
2022/10/11 00:28:55;;;;;;;8.07;1.60;;;6.90;99.90;;;;;;5070188;28;20048;-89
2022/10/11 00:31:21;;;;;;;12.75;2.35;;;6.90;99.90;;;;;;5069720;28;20040;-89
2022/10/11 00:33:47;;;;;;;12.32;2.33;;;7.00;99.90;;;;;;5070783;28;20426;-89
2022/10/11 00:36:15;;;;;;;8.73;1.88;;;6.90;99.90;;;;;;5053423;28;20041;-89
2022/10/11 00:38:42;;;;;;;5.93;1.50;;;7.00;99.90;;;;;;5053456;28;20444;-89
2022/10/11 00:41:08;;;;;;;6.82;1.58;;;7.00;99.90;;;;;;5069901;28;20486;-89
2022/10/11 00:43:33;;;;;;;12.75;1.88;;;7.00;99.90;;;;;;5070467;28;20037;-89
2022/10/11 00:46:01;;;;;;;15.00;1.90;;;7.00;99.90;;;;;;5069975;28;20502;-89
2022/10/11 00:48:34;;;;;;;10.30;1.70;;;6.90;99.90;;;;;;5070268;28;20041;-89
2022/10/11 00:51:14;;;;;;;8.13;1.23;;;6.80;99.90;;;;;;5069797;28;20120;-88
2022/10/11 00:53:40;;;;;;;6.32;1.70;;;6.80;99.90;;;;;;5069817;28;20083;-89
2022/10/11 00:56:13;;;;;;;6.35;1.42;;;6.80;99.90;;;;;;5070051;28;20045;-89
2022/10/11 00:58:40;;;;;;;6.47;2.03;;;6.80;99.90;;;;;;5053693;28;20576;-89
2022/10/11 01:01:06;;;;;;;9.95;1.60;;;6.80;99.90;;;;;;5069474;28;20403;-89
2022/10/11 01:03:37;;;;;;;8.50;2.83;;;6.80;99.90;;;;;;5070064;28;20051;-89
2022/10/11 01:06:06;;;;;;;11.38;3.50;;;6.80;99.90;;;;;;5071356;28;20033;-89
2022/10/11 01:08:32;;;;;;;8.93;1.88;;;6.80;99.90;;;;;;5069565;28;20052;-88
2022/10/11 01:10:57;;;;;;;9.80;2.13;;;6.80;99.90;;;;;;5069629;28;20044;-89
2022/10/11 01:13:47;;;;;;;11.10;2.20;;;6.90;99.90;;;;;;5070443;28;20066;-89
2022/10/11 01:16:50;;;;;;;12.48;1.92;;;6.90;99.90;;;;;;5056051;28;20040;-89
2022/10/11 01:19:54;;;;;;;12.90;2.55;;;6.90;99.90;;;;;;4976759;28;20046;-89
2022/10/11 01:22:43;;;;;;;9.70;2.35;;;7.00;99.90;;;;;;4947359;28;20050;-89
2022/10/11 01:25:28;;;;;;;8.95;1.80;;;7.00;99.90;;;;;;4976970;28;20074;-89
2022/10/11 01:28:01;;;;;;;10.05;2.10;;;7.10;99.90;;;;;;4977086;28;20046;-89
2022/10/11 01:30:28;;;;;;;;;;;7.10;99.90;;;;;;4976716;28;20058;-89
2022/10/11 01:33:35;;;;;;;8.70;2.55;;;7.10;99.90;;;;;;4960290;28;19924;-89
2022/10/11 01:36:26;;;;;;;6.70;1.83;;;7.10;99.90;;;;;;4968955;28;20057;-89
2022/10/11 01:39:03;;;;;;;9.38;2.00;;;7.10;99.90;;;;;;4976340;28;20074;-89
2022/10/11 01:41:36;;;;;;;15.63;2.88;;;7.10;99.90;;;;;;4976407;28;20068;-89
2022/10/11 01:44:03;;;;;;;8.70;1.95;;;7.10;99.90;;;;;;4976601;28;20488;-89
2022/10/11 01:46:30;;;;;;;7.50;1.83;;;7.10;99.90;;;;;;4976327;28;20092;-89
2022/10/11 01:48:58;;;;;;;7.53;1.75;;;7.10;99.90;;;;;;4976353;28;20050;-89
2022/10/11 01:51:28;;;;;;;6.80;2.03;;;7.10;99.90;;;;;;4976411;28;20050;-89
2022/10/11 01:54:24;;;;;;;9.75;2.25;;;7.00;99.90;;;;;;4960098;28;20057;-89
2022/10/11 01:56:50;;;;;;;15.65;3.15;;;7.10;99.90;;;;;;5073028;28;20045;-89
2022/10/11 01:59:38;;;;;;;11.93;2.30;;;7.00;99.90;;;;;;5072956;28;20131;-89
2022/10/11 02:02:41;;;;;;;12.60;2.25;;;7.00;99.90;;;;;;5072687;28;20040;-89
2022/10/11 02:05:36;;;;;;;9.30;2.55;;;7.00;99.90;;;;;;5072865;28;20040;-89
2022/10/11 02:08:11;;;;;;;9.55;2.13;;;6.90;99.90;;;;;;5055802;28;20051;-89
2022/10/11 02:10:50;;;;;;;12.32;2.10;;;6.90;99.90;;;;;;5073038;28;20056;-89
2022/10/11 02:13:27;;;;;;;23.70;2.22;;;6.90;99.90;;;;;;5072612;28;20108;-88
2022/10/11 02:15:56;;;;;;;9.32;1.77;;;6.80;99.90;;;;;;5072465;28;20036;-88
2022/10/11 02:18:27;;;;;;;13.45;2.13;;;6.80;99.90;;;;;;5055930;28;20051;-89
2022/10/11 02:20:55;;;;;;;10.55;2.13;;;6.70;99.90;;;;;;5072483;28;20494;-89
2022/10/11 02:23:35;;;;;;;6.07;1.80;;;6.70;99.90;;;;;;5072325;28;20055;-89
2022/10/11 02:26:05;;;;;;;7.97;1.77;;;6.80;99.90;;;;;;5055417;28;20422;-89
2022/10/11 02:28:35;;;;;;;21.90;2.45;;;6.80;99.90;;;;;;5072640;28;20044;-89
2022/10/11 02:31:03;;;;;;;10.18;1.73;;;6.80;99.90;;;;;;5071784;28;20044;-89
2022/10/11 02:34:06;;;;;;;17.60;2.08;;;6.80;99.90;;;;;;5055734;28;20132;-89
2022/10/11 02:36:39;;;;;;;;;;;6.70;99.90;;;;;;5072811;28;20048;-88
2022/10/11 02:39:15;;;;;;;7.35;1.60;;;6.70;99.90;;;;;;5055454;28;19931;-89
2022/10/11 02:41:42;;;;;;;7.53;2.08;;;6.70;99.90;;;;;;5071855;28;20513;-89
2022/10/11 02:44:44;;;;;;;6.22;1.58;;;6.80;99.90;;;;;;5071908;28;20120;-89
2022/10/11 02:47:10;;;;;;;10.93;2.20;;;6.80;99.90;;;;;;5059122;28;20048;-89
2022/10/11 02:49:36;;;;;;;7.50;1.85;;;6.80;99.90;;;;;;5072077;28;20044;-89
2022/10/11 02:52:03;;;;;;;7.78;1.65;;;6.80;99.90;;;;;;5071281;28;20044;-89
2022/10/11 02:54:29;;;;;;;6.78;2.10;;;6.80;99.90;;;;;;5071968;28;20035;-89
2022/10/11 02:56:54;;;;;;;7.78;2.08;;;6.80;99.90;;;;;;5071720;28;20044;-89
2022/10/11 02:59:20;;;;;;;7.45;2.05;;;6.80;99.90;;;;;;5071688;28;20441;-89
2022/10/11 03:01:46;;;;;;;8.32;2.00;;;6.80;99.90;;;;;;5071440;28;20033;-89
2022/10/11 03:04:11;;;;;;;12.10;2.13;;;6.80;99.90;;;;;;5072115;28;20037;-89
2022/10/11 03:06:37;;;;;;;8.55;2.08;;;6.80;99.90;;;;;;5071405;28;20544;-89
2022/10/11 03:09:03;;;;;;;10.93;2.22;;;6.80;99.90;;;;;;5055095;28;20041;-89
2022/10/11 03:11:28;;;;;;;8.43;1.90;;;6.80;99.90;;;;;;5071500;28;20098;-89
2022/10/11 03:13:54;;;;;;;12.57;2.05;;;6.80;99.90;;;;;;5071157;28;20521;-89
2022/10/11 03:16:19;;;;;;;7.40;1.70;;;6.80;99.90;;;;;;5071407;28;20044;-89
2022/10/11 03:18:45;;;;;;;9.10;2.05;;;6.80;99.90;;;;;;5071352;28;20029;-89
2022/10/11 03:21:11;;;;;;;10.80;1.75;;;6.80;99.90;;;;;;5070881;28;20448;-89
2022/10/11 03:23:36;;;;;;;6.68;1.60;;;6.80;99.90;;;;;;5071146;28;20040;-89
2022/10/11 03:26:02;;;;;;;8.68;1.88;;;6.80;99.90;;;;;;5071186;28;20036;-89
2022/10/11 03:28:28;;;;;;;8.98;2.20;;;6.80;99.90;;;;;;5054493;28;20036;-88
2022/10/11 03:30:53;;;;;;;8.27;2.05;;;6.80;99.90;;;;;;5071126;28;20040;-89
2022/10/11 03:33:19;;;;;;;8.30;1.70;;;6.80;99.90;;;;;;5071372;28;20405;-89
2022/10/11 03:35:46;;;;;;;9.63;2.10;;;6.80;99.90;;;;;;5071079;28;20044;-89
2022/10/11 03:38:14;;;;;;;7.47;2.00;;;6.80;99.90;;;;;;5070053;28;20036;-89
2022/10/11 03:40:40;;;;;;;11.77;2.10;;;6.80;99.90;;;;;;5071202;28;20052;-89
2022/10/11 03:43:06;;;;;;;11.15;2.22;;;6.80;99.90;;;;;;5071149;28;20465;-89
2022/10/11 03:45:32;;;;;;;8.32;2.40;;;6.80;99.90;;;;;;5054169;28;20048;-89
2022/10/11 03:47:57;;;;;;;6.93;2.28;;;6.80;99.90;;;;;;5070785;28;20577;-89
2022/10/11 03:50:23;;;;;;;8.45;2.05;;;6.80;99.90;;;;;;5054223;28;20047;-89
2022/10/11 03:52:49;;;;;;;12.05;2.33;;;6.80;99.90;;;;;;5070476;28;20521;-89
2022/10/11 03:55:15;;;;;;;7.32;1.83;;;6.80;99.90;;;;;;5070956;28;20044;-89
2022/10/11 03:57:40;;;;;;;11.35;2.17;;;6.80;99.90;;;;;;5070821;28;20402;-89
2022/10/11 04:00:07;;;;;;;10.48;1.80;;;6.80;99.90;;;;;;5070359;28;20103;-89
2022/10/11 04:02:32;;;;;;;9.48;2.03;;;6.80;99.90;;;;;;5070595;28;20037;-89
2022/10/11 04:04:58;;;;;;;5.90;1.83;;;6.80;99.90;;;;;;5070670;28;20089;-88
2022/10/11 04:07:23;;;;;;;8.02;1.85;;;6.80;99.90;;;;;;5070337;28;20115;-88
2022/10/11 04:09:49;;;;;;;10.73;2.38;;;6.80;99.90;;;;;;5053830;28;20037;-89
2022/10/11 04:12:15;;;;;;;17.20;2.03;;;6.80;99.90;;;;;;5070419;28;20045;-89
2022/10/11 04:14:41;;;;;;;13.27;2.10;;;6.80;99.90;;;;;;5070299;28;20036;-88
2022/10/11 04:17:06;;;;;;;10.45;3.17;;;6.80;99.90;;;;;;5070500;28;20456;-89
2022/10/11 04:19:32;;;;;;;9.43;2.05;;;6.80;99.90;;;;;;5070615;28;20048;-89
2022/10/11 04:21:57;;;;;;;10.25;2.50;;;6.80;99.90;;;;;;5070004;28;20039;-89
2022/10/11 04:24:23;;;;;;;9.18;1.88;;;6.80;99.90;;;;;;5070726;28;20395;-89
2022/10/11 04:26:48;;;;;;;7.40;2.22;;;6.80;99.90;;;;;;5070665;28;20490;-89
2022/10/11 04:29:14;;;;;;;8.07;2.13;;;6.80;99.90;;;;;;5070073;28;20135;-89
2022/10/11 04:31:40;;;;;;;9.52;2.22;;;6.80;99.90;;;;;;5070131;28;20048;-89
2022/10/11 04:34:05;;;;;;;7.97;2.20;;;6.70;99.90;;;;;;5070796;28;20040;-89
2022/10/11 04:36:32;;;;;;;7.43;2.53;;;6.80;99.90;;;;;;5070057;28;20651;-88
2022/10/11 04:39:00;;;;;;;8.27;2.42;;;6.80;99.90;;;;;;5053495;28;20383;-89
2022/10/11 04:41:27;;;;;;;6.70;2.63;;;6.80;99.90;;;;;;5053553;28;20127;-89
2022/10/11 04:43:52;;;;;;;9.57;2.25;;;6.80;99.90;;;;;;5069999;28;20036;-89
2022/10/11 04:46:18;;;;;;;13.13;3.22;;;6.80;99.90;;;;;;5070371;28;20051;-89
2022/10/11 04:48:43;;;;;;;13.57;1.90;;;6.80;99.90;;;;;;5070246;28;20048;-89
2022/10/11 04:51:09;;;;;;;10.43;2.28;;;6.80;99.90;;;;;;5072958;28;20036;-89
2022/10/11 04:53:34;;;;;;;9.75;2.38;;;6.80;99.90;;;;;;5074408;28;20173;-89
2022/10/11 04:56:06;;;;;;;8.32;2.45;;;6.80;99.90;;;;;;5074331;28;20036;-89
2022/10/11 04:58:34;;;;;;;9.82;2.13;;;6.70;99.90;;;;;;5057253;28;20033;-89
2022/10/11 05:00:59;;;;;;;12.43;2.35;;;6.80;99.90;;;;;;5056967;28;20086;-89
2022/10/11 05:03:25;;;;;;;8.30;2.65;;;6.80;99.90;;;;;;5074181;28;20040;-89
2022/10/11 05:05:52;;;;;;;9.77;3.03;;;6.80;99.90;;;;;;5056748;28;20043;-89
2022/10/11 05:08:18;;;;;;;6.55;2.10;;;6.80;99.90;;;;;;5074232;28;20063;-88
2022/10/11 05:11:05;;;;;;;10.02;2.30;;;6.80;99.90;;;;;;5073894;28;20043;-89
2022/10/11 05:13:31;;;;;;;8.32;2.63;;;6.80;99.90;;;;;;5073741;28;20048;-89
2022/10/11 05:15:57;;;;;;;10.90;3.25;;;6.80;99.90;;;;;;5057383;28;20102;-89
2022/10/11 05:18:23;;;;;;;10.18;2.22;;;6.80;99.90;;;;;;5056886;28;20498;-89
2022/10/11 05:20:57;;;;;;;10.77;2.35;;;6.80;99.90;;;;;;5073516;28;20037;-88
2022/10/11 05:23:22;;;;;;;9.27;2.88;;;6.80;99.90;;;;;;5073640;28;20127;-88
2022/10/11 05:25:48;;;;;;;8.43;2.00;;;6.80;99.90;;;;;;5073688;28;20127;-89
2022/10/11 05:28:13;;;;;;;8.80;2.22;;;6.80;99.90;;;;;;5073295;28;20474;-88
2022/10/11 05:30:39;;;;;;;8.02;2.00;;;6.70;99.90;;;;;;5073271;28;20063;-88
2022/10/11 05:33:04;;;;;;;10.80;2.42;;;6.70;99.90;;;;;;5073336;28;20048;-88
2022/10/11 05:35:30;;;;;;;9.00;2.55;;;6.70;99.90;;;;;;5072970;28;20044;-88
2022/10/11 05:37:56;;;;;;;7.70;2.28;;;6.80;99.90;;;;;;5073354;28;20037;-88
2022/10/11 05:40:21;;;;;;;11.48;2.20;;;6.80;99.90;;;;;;5072826;28;20037;-88
2022/10/11 05:42:47;;;;;;;10.23;2.17;;;6.80;99.90;;;;;;5072266;28;20029;-88
2022/10/11 05:45:12;;;;;;;8.57;2.70;;;6.80;99.90;;;;;;5072796;28;20051;-88
2022/10/11 05:47:38;;;;;;;12.27;2.20;;;6.80;99.90;;;;;;5056400;28;20046;-88
2022/10/11 05:50:03;;;;;;;12.10;3.33;;;6.80;99.90;;;;;;5073081;28;20178;-88
2022/10/11 05:52:29;;;;;;;13.27;2.70;;;6.80;99.90;;;;;;5072660;28;20038;-88
2022/10/11 05:54:55;;;;;;;7.95;2.10;;;6.80;99.90;;;;;;5072987;28;20413;-89
2022/10/11 05:57:21;;;;;;;9.48;2.35;;;6.80;99.90;;;;;;5071937;28;20029;-88
2022/10/11 05:59:46;;;;;;;12.50;2.35;;;6.80;99.90;;;;;;5072673;28;20048;-89
2022/10/11 06:02:12;;;;;;;7.63;2.30;;;6.80;99.90;;;;;;5071654;28;20048;-89
2022/10/11 06:04:38;;;;;;;12.82;2.60;;;6.80;99.90;;;;;;5073043;28;20136;-89
2022/10/11 06:07:04;;;;;;;9.07;2.53;;;6.80;99.90;;;;;;5074256;28;20502;-89
2022/10/11 06:09:30;;;;;;;7.63;2.05;;;6.80;99.90;;;;;;5072807;28;20139;-89
2022/10/11 06:11:56;;;;;;;9.23;3.35;;;6.80;99.90;;;;;;5071674;28;20514;-89
2022/10/11 06:14:22;;;;;;;10.75;2.83;;;6.80;99.90;;;;;;5072215;28;20036;-88
2022/10/11 06:16:48;;;;;;;14.38;2.63;;;6.80;99.90;;;;;;5071917;28;20041;-88
2022/10/11 06:19:13;;;;;;;10.13;2.40;;;6.80;99.90;;;;;;5072038;28;20032;-89
2022/10/11 06:21:39;;;;;;;9.85;2.40;;;6.80;99.90;;;;;;5072253;28;20069;-89
2022/10/11 06:24:05;;;;;;;10.68;2.33;;;6.80;99.90;;;;;;5072694;28;20044;-88
2022/10/11 06:26:31;;;;;;;9.73;2.42;;;6.80;99.90;;;;;;5072167;28;20079;-89
2022/10/11 06:28:57;;;;;;;8.82;2.17;;;6.80;99.90;;;;;;5072755;28;20041;-88
2022/10/11 06:31:23;;;;;;;10.10;2.45;;;6.80;99.90;;;;;;5072284;28;20190;-89
2022/10/11 06:33:49;;;;;;;8.82;2.25;;;6.90;99.90;;;;;;5072123;28;20524;-88
2022/10/11 06:36:15;;;;;;;8.25;2.33;;;6.90;99.90;;;;;;5072067;28;20137;-88
2022/10/11 06:38:42;;;;;;;11.65;2.67;;;6.90;99.90;;;;;;5072718;28;20083;-89
2022/10/11 06:41:10;;;;;;;7.97;2.25;;;6.90;99.90;;;;;;5054947;28;20410;-89
2022/10/11 06:43:36;;;;;;;11.38;2.28;;;6.90;99.90;;;;;;5069513;28;20072;-89
2022/10/11 06:46:01;;;;;;;10.95;2.50;;;6.90;99.90;;;;;;5054838;28;20125;-89
2022/10/11 06:48:27;;;;;;;9.18;2.47;;;7.00;99.90;;;;;;5071364;28;20528;-89
2022/10/11 06:50:52;;;;;;;12.85;2.83;;;7.00;99.90;;;;;;5071764;28;20039;-89
2022/10/11 06:53:18;;;;;;;7.55;2.00;;;7.00;99.90;;;;;;5070869;28;20067;-88
2022/10/11 06:55:43;;;;;;;8.18;2.58;;;7.00;99.90;;;;;;5071141;28;20047;-88
2022/10/11 06:58:09;;;;;;;9.73;2.78;;;7.00;99.90;;;;;;5071412;28;20032;-89
2022/10/11 07:00:35;;;;;;;10.05;2.75;;;7.00;99.90;;;;;;5054435;28;20048;-89
2022/10/11 07:03:00;;;;;;;7.00;2.00;;;7.00;99.90;;;;;;5071074;28;20094;-89
2022/10/11 07:05:28;;;;;;;10.90;2.45;;;7.00;99.90;;;;;;5054312;28;20474;-89
2022/10/11 07:07:53;;;;;;;8.05;2.15;;;7.00;99.90;;;;;;5071131;28;20048;-89
2022/10/11 07:10:19;;;;;;;12.38;2.65;;;7.00;99.90;;;;;;5071170;28;20062;-89
2022/10/11 07:12:45;;;;;;;11.70;3.03;;;7.00;99.90;;;;;;5053818;28;20047;-89
2022/10/11 07:15:11;;;;;;;7.75;2.10;;;7.00;99.90;;;;;;5054236;28;20071;-88
2022/10/11 07:17:55;;;;;;;6.40;2.00;;;7.00;99.90;;;;;;5056844;28;20245;-89
2022/10/11 07:20:20;;;;;;;10.65;2.28;;;7.00;99.90;;;;;;5070905;28;20040;-89
2022/10/11 07:22:46;;;;;;;8.32;2.85;;;7.00;99.90;;;;;;5070459;28;20037;-89
2022/10/11 07:25:11;;;;;;;7.25;2.08;;;7.00;99.90;;;;;;5070941;28;20072;-89
2022/10/11 07:27:37;;;;;;;9.90;2.20;;;7.00;99.90;;;;;;5070556;28;20043;-89
2022/10/11 07:30:03;;;;;;;9.70;2.28;;;7.10;99.90;;;;;;5070793;28;20036;-89
2022/10/11 07:32:28;;;;;;;8.85;2.35;;;7.10;99.90;;;;;;5070813;28;20044;-89
2022/10/11 07:34:55;;;;;;;9.27;2.47;;;7.20;99.90;;;;;;5070275;28;20064;-89
2022/10/11 07:37:20;;;;;;;7.28;2.15;;;7.20;99.90;;;;;;5070682;28;20040;-89
2022/10/11 07:39:48;;;;;;;7.93;2.30;;;7.20;99.90;;;;;;5070780;28;20048;-89
2022/10/11 07:42:15;;;;;;;9.40;2.72;;;7.20;99.90;;;;;;5070001;28;20033;-89
2022/10/11 07:44:40;;;;;;;10.18;2.63;;;7.20;99.90;;;;;;5070687;28;20037;-89
2022/10/11 07:47:06;;;;;;;7.88;2.30;;;7.30;99.90;;;;;;5070419;28;20041;-89
2022/10/11 07:49:31;;;;;;;14.55;2.65;;;7.30;99.90;;;;;;5070065;28;20047;-89
2022/10/11 07:51:57;;;;;;;9.93;2.33;;;7.30;99.90;;;;;;5070059;28;20413;-88
2022/10/11 07:54:22;;;;;;;7.57;2.42;;;7.30;99.90;;;;;;5070473;28;20040;-89
2022/10/11 07:56:48;;;;;;;10.77;2.78;;;7.30;99.90;;;;;;5069810;28;20414;-89
2022/10/11 07:59:13;;;;;;;8.07;2.38;;;7.40;99.90;;;;;;5070479;28;20097;-89
2022/10/11 08:01:39;;;;;;;13.13;2.58;;;7.40;99.90;;;;;;5070093;28;20494;-89
2022/10/11 08:04:04;;;;;;;6.50;2.30;;;7.50;99.90;;;;;;5069870;28;20040;-89
2022/10/11 08:06:31;;;;;;;7.05;2.83;;;7.60;99.90;;;;;;5070424;28;20127;-89
2022/10/11 08:08:58;;;;;;;13.07;3.08;;;7.60;99.90;;;;;;5070006;28;20048;-90
2022/10/11 08:11:34;;;;;;;11.63;2.60;;;7.70;99.90;;;;;;5069938;28;20093;-89
2022/10/11 08:14:00;;;;;;;9.93;2.55;;;7.70;99.90;;;;;;5053391;28;20064;-89
2022/10/11 08:16:26;;;;;;;11.15;3.38;;;7.80;99.90;;;;;;5070203;28;20099;-89
2022/10/11 08:18:54;;;;;;;12.57;3.00;;;7.90;99.90;;;;;;5070152;28;20501;-89
2022/10/11 08:21:20;;;;;;;7.13;2.85;;;8.00;99.90;;;;;;5069665;28;20119;-89
2022/10/11 08:23:45;;;;;;;8.43;2.72;;;8.10;99.90;;;;;;5053108;28;20478;-89
2022/10/11 08:26:11;;;;;;;9.98;3.55;;;8.20;99.90;;;;;;5069436;28;20391;-89
2022/10/11 08:28:37;;;;;;;12.98;3.17;;;8.30;99.90;;;;;;5070282;28;20497;-89
2022/10/11 08:31:03;;;;;;;12.00;3.22;;;8.40;99.90;;;;;;5069778;28;20521;-89
2022/10/11 08:33:29;;;;;;;9.05;3.20;;;8.50;99.90;;;;;;5053171;28;20032;-89
2022/10/11 08:35:56;;;;;;;12.38;3.28;;;8.60;99.90;;;;;;5053363;28;20053;-89
2022/10/11 08:38:22;;;;;;;9.90;3.33;;;8.70;99.90;;;;;;5069577;28;20048;-89
2022/10/11 08:40:52;;;;;;;17.65;3.45;;;8.80;99.90;;;;;;5069668;28;20036;-89
2022/10/11 08:43:27;;;;;;;14.35;3.05;;;8.90;99.90;;;;;;5052905;28;20398;-89
2022/10/11 08:45:56;;;;;;;10.50;2.95;;;9.10;99.90;;;;;;5052677;28;20036;-89
2022/10/11 08:48:34;;;;;;;12.93;3.92;;;9.20;99.90;;;;;;5066810;28;20129;-89
2022/10/11 08:51:01;;;;;;;10.25;2.63;;;9.40;99.90;;;;;;5069124;28;20356;-89
2022/10/11 08:53:45;;;;;;;11.27;3.08;;;9.50;99.90;;;;;;5069236;28;20046;-89
2022/10/11 08:56:16;;;;;;;9.30;2.42;;;9.60;99.90;;;;;;5067741;28;20036;-89
2022/10/11 08:58:53;;;;;;;9.02;2.90;;;9.70;99.90;;;;;;5049534;28;20032;-89
2022/10/11 09:01:24;;;;;;;9.85;2.90;;;9.80;99.90;;;;;;5067807;28;20455;-89
2022/10/11 09:03:51;;;;;;;14.60;3.42;;;9.90;99.90;;;;;;5050867;28;20033;-89
2022/10/11 09:06:26;;;;;;;13.85;3.22;;;10.00;99.90;;;;;;5068683;28;20119;-89
2022/10/11 09:09:39;;;;;;;8.18;2.63;;;10.20;99.90;;;;;;5067903;28;20453;-89
2022/10/11 09:12:26;;;;;;;11.57;3.33;;;10.30;99.90;;;;;;5019550;28;20040;-89
2022/10/11 09:15:24;;;;;;;13.55;2.55;;;10.50;99.90;;;;;;5032813;28;20132;-89
2022/10/11 09:18:11;;;;;;;10.13;2.83;;;10.70;99.90;;;;;;5056877;28;20527;-89
2022/10/11 09:21:27;;;;;;;12.82;2.90;;;10.80;99.90;;;;;;5069219;28;20044;-89
2022/10/11 09:24:07;;;;;;;12.48;2.83;;;11.00;99.90;;;;;;5011819;28;20045;-89
2022/10/11 09:26:44;;;;;;;13.52;2.47;;;11.20;99.90;;;;;;5068841;28;20103;-89
2022/10/11 09:29:38;;;;;;;12.07;2.13;;;11.30;99.90;;;;;;5069385;28;20044;-90
2022/10/11 09:32:13;;;;;;;10.88;2.47;;;11.40;99.90;;;;;;5051939;28;20051;-90
2022/10/11 09:34:39;;;;;;;12.05;2.53;;;11.50;99.90;;;;;;5051968;28;20036;-89
2022/10/11 09:37:29;;;;;;;14.95;2.40;;;11.60;99.90;;;;;;5071072;28;20048;-90
2022/10/11 09:40:10;;;;;;;14.10;3.05;;;11.80;99.90;;;;;;5072022;28;20395;-90
2022/10/11 09:42:36;;;;;;;11.60;3.15;;;11.90;99.90;;;;;;5070098;28;20514;-90
2022/10/11 09:45:04;;;;;;;10.77;2.42;;;12.00;99.90;;;;;;5055949;28;20095;-90
2022/10/11 09:47:31;;;;;;;10.77;2.33;;;12.10;99.90;;;;;;5072292;28;20135;-90
2022/10/11 09:50:00;;;;;;;12.65;2.55;;;12.20;99.90;;;;;;5056052;28;20028;-90
2022/10/11 09:52:26;;;;;;;11.05;2.40;;;12.30;99.90;;;;;;5072300;28;20551;-90
2022/10/11 09:54:59;;;;;;;12.43;2.42;;;12.40;99.90;;;;;;5072100;28;20044;-90
2022/10/11 09:57:31;;;;;;;9.77;2.10;;;12.50;99.90;;;;;;5072582;28;20520;-90
2022/10/11 10:00:24;;;;;;;9.57;2.17;;;12.50;99.90;;;;;;5070465;28;20052;-91
2022/10/11 10:02:51;;;;;;;;;;;12.60;99.90;;;;;;5047864;28;20052;-90
2022/10/11 10:05:19;;;;;;;13.50;3.90;;;12.70;99.90;;;;;;5072872;28;19916;-91
2022/10/11 10:08:08;;;;;;;9.27;1.83;;;12.70;99.90;;;;;;5071675;28;20413;-90
2022/10/11 10:10:42;;;;;;;10.52;2.13;;;12.90;99.90;;;;;;5061807;28;20052;-90
2022/10/11 10:13:42;;;;;;;14.73;3.33;;;12.90;99.90;;;;;;5072120;28;20082;-90
2022/10/11 10:16:30;;;;;;;15.43;2.58;;;13.10;99.90;;;;;;5071053;28;20052;-89
2022/10/11 10:19:03;;;;;;;17.85;3.55;;;13.10;99.90;;;;;;5070240;28;20039;-90
2022/10/11 10:21:34;;;;;;;10.27;2.08;;;13.30;99.90;;;;;;5071336;28;20050;-90
2022/10/11 10:24:06;;;;;;;12.93;3.00;;;13.30;99.90;;;;;;5071611;28;20036;-91
2022/10/11 10:26:33;;;;;;;13.48;1.85;;;13.40;99.90;;;;;;5069459;28;20418;-91
2022/10/11 10:29:00;;;;;;;13.27;2.33;;;13.40;99.90;;;;;;5071273;28;20111;-90
2022/10/11 10:31:51;;;;;;;18.63;4.20;;;13.50;99.90;;;;;;5054132;28;20115;-91
2022/10/11 10:34:23;;;;;;;8.23;2.08;;;13.60;99.90;;;;;;5060769;28;20080;-89
2022/10/11 10:36:56;;;;;;;11.20;2.28;;;13.70;99.90;;;;;;5071730;28;20040;-88
2022/10/11 10:39:43;;;;;;;12.18;3.15;;;13.70;99.90;;;;;;5054471;28;20037;-88
2022/10/11 10:42:15;;;;;;;14.25;3.83;;;13.90;99.90;;;;;;5071370;28;20040;-89
2022/10/11 10:44:43;;;;;;;15.07;2.25;;;13.90;99.90;;;;;;5071581;28;20040;-89
2022/10/11 10:47:18;;;;;;;11.55;2.20;;;14.00;99.90;;;;;;5053898;28;20462;-89
2022/10/11 10:50:01;;;;;;;13.88;3.55;;;14.10;99.90;;;;;;5071356;28;20040;-89
2022/10/11 10:52:52;;;;;;;13.50;2.45;;;14.20;99.90;;;;;;5070953;28;20102;-89
2022/10/11 10:55:27;;;;;;;13.80;3.88;;;14.20;99.90;;;;;;5071391;28;20045;-89
2022/10/11 10:58:11;;;;;;;9.43;2.22;;;14.30;99.90;;;;;;5054402;28;20040;-90
2022/10/11 11:00:54;;;;;;;18.58;3.95;;;14.40;99.90;;;;;;5071171;28;20494;-89
2022/10/11 11:03:31;;;;;;;12.25;3.03;;;14.50;99.90;;;;;;5071263;28;20044;-89
2022/10/11 11:06:07;;;;;;;18.95;4.07;;;14.60;99.90;;;;;;5071343;28;20070;-89
2022/10/11 11:08:55;;;;;;;16.33;2.88;;;14.70;99.90;;;;;;5053774;28;20059;-89
2022/10/11 11:11:59;;;;;;;14.73;2.63;;;14.80;99.90;;;;;;5053226;28;20043;-89
2022/10/11 11:14:49;;;;;;;12.93;3.53;;;14.80;99.90;;;;;;5054964;28;20067;-89
2022/10/11 11:17:52;;;;;;;12.90;2.95;;;14.90;99.90;;;;;;5070863;28;20045;-89
2022/10/11 11:20:23;;;;;;;12.05;2.45;;;15.00;99.90;;;;;;5051633;28;20043;-89
2022/10/11 11:23:19;;;;;;;13.93;3.67;;;15.00;99.90;;;;;;5050750;28;20120;-89
2022/10/11 11:26:08;;;;;;;17.38;3.38;;;15.20;99.90;;;;;;5051520;28;20163;-89
2022/10/11 11:28:50;;;;;;;14.95;3.22;;;15.30;99.90;;;;;;5045209;28;20059;-89
2022/10/11 11:31:39;;;;;;;18.48;2.45;;;15.30;99.90;;;;;;5050871;28;20411;-89
2022/10/11 11:34:45;;;;;;;14.82;3.22;;;15.40;99.90;;;;;;5051236;28;20052;-89
2022/10/11 11:37:19;;;;;;;13.93;3.22;;;15.50;99.90;;;;;;5050853;28;20045;-89
2022/10/11 11:39:48;;;;;;;15.32;3.95;;;15.60;99.90;;;;;;5034233;28;20044;-89
2022/10/11 11:42:22;;;;;;;11.63;2.83;;;15.70;99.90;;;;;;5034147;28;20033;-89
2022/10/11 11:44:50;;;;;;;12.77;2.70;;;15.80;99.90;;;;;;5033835;28;20397;-89
2022/10/11 11:47:24;;;;;;;14.23;3.53;;;15.80;99.90;;;;;;5051016;28;20132;-89
2022/10/11 11:50:03;;;;;;;10.27;2.40;;;15.90;99.90;;;;;;5050828;28;20052;-89
2022/10/11 11:52:36;;;;;;;13.30;2.80;;;16.00;99.90;;;;;;5033730;28;20041;-89
2022/10/11 11:55:20;;;;;;;14.52;3.08;;;16.10;99.90;;;;;;5051043;28;20433;-90
2022/10/11 11:58:08;;;;;;;17.48;3.67;;;16.20;99.90;;;;;;5050741;28;20181;-89
2022/10/11 12:00:58;;;;;;;13.20;3.05;;;16.30;99.90;;;;;;5019062;28;20040;-88
2022/10/11 12:03:29;;;;;;;14.95;3.33;;;16.50;99.90;;;;;;5033614;28;20053;-90
2022/10/11 12:06:13;;;;;;;14.10;3.22;;;16.60;99.90;;;;;;5034219;28;20055;-89
2022/10/11 12:08:41;;;;;;;14.70;2.70;;;16.80;99.90;;;;;;5050142;28;20506;-90
2022/10/11 12:11:24;;;;;;;14.80;3.20;;;16.80;99.90;;;;;;5050429;28;20581;-89
2022/10/11 12:13:50;;;;;;;;;;;16.90;99.90;;;;;;5051157;28;20037;-89
2022/10/11 12:16:17;;;;;;;14.23;3.10;;;16.80;99.90;;;;;;5050405;28;20378;-89
2022/10/11 12:18:56;;;;;;;15.77;3.05;;;16.70;99.90;;;;;;5050593;28;20040;-89
2022/10/11 12:21:39;;;;;;;12.18;3.00;;;16.70;99.90;;;;;;5049752;28;20068;-89
2022/10/11 12:24:05;;;;;;;;;;;16.70;99.90;;;;;;5050963;28;20041;-89
2022/10/11 12:26:43;;;;;;;16.42;4.32;;;16.60;99.90;;;;;;5035556;28;20023;-89
2022/10/11 12:29:18;;;;;;;17.98;4.00;;;16.50;99.90;;;;;;5069451;28;20071;-89
2022/10/11 12:31:46;;;;;;;13.98;3.35;;;16.40;99.90;;;;;;5069473;28;20036;-89
2022/10/11 12:34:24;;;;;;;11.20;3.03;;;16.30;99.90;;;;;;5069904;28;20036;-89
2022/10/11 12:36:50;;;;;;;11.93;2.50;;;16.30;99.90;;;;;;5069085;28;20413;-89
2022/10/11 12:39:18;;;;;;;15.15;3.13;;;16.20;99.90;;;;;;5069794;28;20035;-89
2022/10/11 12:41:50;;;;;;;13.07;2.70;;;16.30;99.90;;;;;;5069382;28;20097;-89
2022/10/11 12:44:22;;;;;;;13.35;3.17;;;16.40;99.90;;;;;;5052965;28;20036;-89
2022/10/11 12:46:54;;;;;;;;;;;16.60;99.90;;;;;;5070045;28;20051;-89
2022/10/11 12:49:26;;;;;;;10.80;2.38;;;16.80;99.90;;;;;;5069733;28;20320;-89
2022/10/11 12:52:04;;;;;;;11.70;2.85;;;17.00;99.90;;;;;;5052627;28;20154;-90
2022/10/11 12:55:07;;;;;;;11.27;3.17;;;17.00;96.20;;;;;;5069522;28;20044;-90
2022/10/11 12:57:52;;;;;;;;;;;17.40;99.70;;;;;;5070085;28;20044;-89
2022/10/11 13:00:27;;;;;;;14.02;2.97;;;18.00;98.60;;;;;;5069306;28;19973;-89
2022/10/11 13:02:57;;;;;;;12.50;2.97;;;19.00;93.40;;;;;;5069297;28;20044;-90
2022/10/11 13:05:50;;;;;;;13.07;2.70;;;20.50;86.40;;;;;;5069741;28;20712;-90
2022/10/11 13:08:19;;;;;;;;;;;22.00;76.70;;;;;;5069300;28;20044;-90
2022/10/11 13:10:46;;;;;;;11.85;2.92;;;23.00;71.30;;;;;;5070050;28;20475;-90
2022/10/11 13:13:21;;;;;;;13.38;2.60;;;24.10;69.50;;;;;;5072970;28;20119;-89
2022/10/11 13:15:47;;;;;;;15.07;2.83;;;24.80;63.20;;;;;;5056460;28;20047;-90